createdAt,value
2023-01-02T00:00:59.434Z,12.90
2023-01-02T00:03:26.504Z,12.90
2023-01-02T00:05:53.495Z,13.00
2023-01-02T00:08:20.344Z,12.90
2023-01-02T00:10:47.169Z,12.90
2023-01-02T00:13:14.769Z,12.90
2023-01-02T00:15:41.996Z,12.90
2023-01-02T00:18:09.120Z,13.00
2023-01-02T00:20:36.188Z,12.90
2023-01-02T00:23:03.470Z,12.80
2023-01-02T00:25:30.879Z,12.80
2023-01-02T00:27:58.085Z,12.80
2023-01-02T00:30:25.152Z,12.80
2023-01-02T00:32:52.282Z,12.70
2023-01-02T00:35:19.404Z,12.80
2023-01-02T00:37:46.477Z,12.70
2023-01-02T00:40:14.203Z,12.70
2023-01-02T00:42:44.059Z,12.80
2023-01-02T00:45:11.817Z,12.70
2023-01-02T00:47:38.823Z,12.70
2023-01-02T00:50:06.789Z,12.70
2023-01-02T00:52:33.769Z,12.60
2023-01-02T00:55:00.861Z,12.70
2023-01-02T00:57:30.351Z,12.60
2023-01-02T00:59:57.489Z,12.60
2023-01-02T01:02:24.868Z,12.70
2023-01-02T01:04:51.929Z,12.60
2023-01-02T01:07:18.927Z,12.70
2023-01-02T01:09:45.933Z,12.70
2023-01-02T01:12:12.941Z,12.90
2023-01-02T01:14:39.933Z,12.80
2023-01-02T01:17:06.984Z,12.80
2023-01-02T01:19:35.866Z,12.80
2023-01-02T01:22:02.883Z,12.90
2023-01-02T01:24:29.903Z,12.80
2023-01-02T01:26:56.902Z,12.70
2023-01-02T01:29:24.006Z,12.70
2023-01-02T01:31:51.126Z,12.70
2023-01-02T01:34:18.295Z,12.50
2023-01-02T01:36:45.225Z,12.60
2023-01-02T01:39:12.259Z,12.60
2023-01-02T01:41:39.306Z,12.80
2023-01-02T01:44:42.895Z,12.70
2023-01-02T01:47:38.657Z,12.70
2023-01-02T01:50:10.805Z,12.80
2023-01-02T01:53:10.484Z,12.80
2023-01-02T01:55:42.542Z,12.80
2023-01-02T01:58:13.590Z,12.80
2023-01-02T02:00:42.148Z,12.80
2023-01-02T02:03:18.213Z,12.90
2023-01-02T02:05:46.144Z,12.90
2023-01-02T02:08:36.862Z,12.90
2023-01-02T02:11:04.360Z,13.00
2023-01-02T02:13:33.381Z,13.00
2023-01-02T02:16:15.942Z,13.10
2023-01-02T02:18:55.725Z,13.10
2023-01-02T02:22:07.039Z,13.20
2023-01-02T02:25:07.676Z,13.20
2023-01-02T02:27:57.634Z,13.10
2023-01-02T02:30:30.942Z,13.30
2023-01-02T02:33:27.324Z,13.30
2023-01-02T02:36:18.988Z,13.30
2023-01-02T02:39:06.539Z,13.30
2023-01-02T02:41:38.786Z,13.40
2023-01-02T02:44:43.049Z,13.50
2023-01-02T02:47:20.052Z,13.50
2023-01-02T02:50:10.942Z,13.50
2023-01-02T02:52:51.909Z,13.60
2023-01-02T02:55:53.220Z,13.70
2023-01-02T02:58:21.651Z,13.80
2023-01-02T03:00:48.664Z,13.90
2023-01-02T03:03:20.999Z,13.90
2023-01-02T03:06:18.993Z,14.00
2023-01-02T03:08:54.916Z,14.00
2023-01-02T03:11:33.929Z,14.00
2023-01-02T03:14:06.961Z,14.20
2023-01-02T03:16:39.325Z,14.10
2023-01-02T03:19:09.363Z,14.20
2023-01-02T03:21:42.914Z,14.20
2023-01-02T03:24:14.799Z,14.30
2023-01-02T03:26:45.259Z,14.30
2023-01-02T03:29:24.195Z,14.30
2023-01-02T03:31:55.929Z,14.30
2023-01-02T03:34:29.961Z,14.30
2023-01-02T03:37:04.077Z,14.30
2023-01-02T03:39:35.353Z,14.30
2023-01-02T03:42:21.112Z,14.40
2023-01-02T03:45:03.537Z,14.40
2023-01-02T03:47:43.364Z,14.40
2023-01-02T03:50:23.581Z,14.40
2023-01-02T03:52:50.835Z,14.50
2023-01-02T03:55:18.212Z,14.50
2023-01-02T03:58:01.613Z,14.50
2023-01-02T04:00:38.687Z,14.50
2023-01-02T04:03:17.609Z,14.50
2023-01-02T04:05:59.704Z,14.60
2023-01-02T04:08:33.585Z,14.60
2023-01-02T04:11:03.303Z,14.60
2023-01-02T04:13:39.390Z,14.70
2023-01-02T04:16:10.820Z,14.70
2023-01-02T04:18:46.632Z,14.80
2023-01-02T04:21:19.590Z,14.90
2023-01-02T04:24:04.850Z,14.90
2023-01-02T04:26:42.002Z,15.00
2023-01-02T04:29:09.510Z,15.00
2023-01-02T04:31:51.754Z,15.00
2023-01-02T04:34:20.657Z,15.10
2023-01-02T04:36:49.900Z,15.10
2023-01-02T04:39:20.224Z,15.20
2023-01-02T04:41:47.348Z,15.20
2023-01-02T04:44:14.393Z,15.30
2023-01-02T04:46:41.506Z,15.40
2023-01-02T04:49:10.203Z,15.30
2023-01-02T04:51:37.162Z,15.30
2023-01-02T04:54:04.596Z,15.40
2023-01-02T04:56:31.730Z,15.40
2023-01-02T04:58:59.038Z,15.40
2023-01-02T05:01:26.346Z,15.40
2023-01-02T05:03:53.475Z,15.40
2023-01-02T05:06:20.594Z,15.40
2023-01-02T05:08:47.771Z,15.40
2023-01-02T05:11:17.068Z,15.40
2023-01-02T05:13:44.273Z,15.40
2023-01-02T05:16:11.830Z,15.40
2023-01-02T05:18:38.902Z,15.40
2023-01-02T05:21:28.923Z,15.50
2023-01-02T05:23:57.650Z,15.50
2023-01-02T05:26:24.690Z,15.50
2023-01-02T05:28:54.995Z,15.60
2023-01-02T05:31:22.454Z,15.50
2023-01-02T05:33:54.202Z,15.50
2023-01-02T05:36:22.509Z,15.50
2023-01-02T05:38:49.521Z,15.50
2023-01-02T05:41:16.764Z,15.60
2023-01-02T05:43:43.762Z,15.60
2023-01-02T05:46:14.216Z,15.50
2023-01-02T05:48:42.084Z,15.50
2023-01-02T05:51:11.682Z,15.50
2023-01-02T05:53:39.510Z,15.50
2023-01-02T05:56:15.269Z,15.50
2023-01-02T05:58:45.241Z,15.50
2023-01-02T06:01:18.419Z,15.40
2023-01-02T06:03:51.301Z,15.40
2023-01-02T06:06:33.351Z,15.40
2023-01-02T06:09:00.857Z,15.50
2023-01-02T06:11:29.034Z,15.40
2023-01-02T06:13:56.496Z,15.40
2023-01-02T06:16:23.880Z,15.40
2023-01-02T06:18:51.603Z,15.40
2023-01-02T06:21:20.611Z,15.30
2023-01-02T06:23:48.664Z,15.40
2023-01-02T06:26:18.042Z,15.40
2023-01-02T06:28:46.468Z,15.40
2023-01-02T06:31:15.776Z,15.40
2023-01-02T06:33:43.592Z,15.40
2023-01-02T06:36:10.437Z,15.40
2023-01-02T06:38:37.479Z,15.40
2023-01-02T06:41:05.571Z,15.40
2023-01-02T06:43:33.625Z,15.40
2023-01-02T06:46:02.179Z,15.30
2023-01-02T06:48:29.247Z,15.30
2023-01-02T06:50:56.070Z,15.30
2023-01-02T06:53:27.137Z,15.30
2023-01-02T06:55:56.390Z,15.30
2023-01-02T06:58:23.908Z,15.30
2023-01-02T07:00:51.258Z,15.30
2023-01-02T07:03:18.718Z,15.30
2023-01-02T07:05:46.110Z,15.30
2023-01-02T07:08:14.107Z,15.10
2023-01-02T07:10:41.289Z,15.10
2023-01-02T07:13:08.442Z,15.00
2023-01-02T07:15:36.374Z,14.80
2023-01-02T07:18:03.310Z,14.70
2023-01-02T07:20:30.155Z,14.50
2023-01-02T07:22:57.418Z,14.50
2023-01-02T07:25:24.758Z,14.70
2023-01-02T07:27:51.590Z,14.30
2023-01-02T07:30:18.659Z,14.30
2023-01-02T07:32:45.823Z,14.20
2023-01-02T07:35:12.857Z,14.10
2023-01-02T07:37:40.542Z,14.10
2023-01-02T07:40:08.104Z,14.10
2023-01-02T07:42:35.131Z,14.10
2023-01-02T07:45:02.021Z,14.10
2023-01-02T07:47:29.164Z,14.10
2023-01-02T07:49:57.002Z,14.20
2023-01-02T07:52:24.077Z,14.20
2023-01-02T07:54:51.133Z,14.30
2023-01-02T07:57:18.024Z,14.40
2023-01-02T07:59:49.669Z,14.40
2023-01-02T08:02:17.008Z,14.40
2023-01-02T08:04:48.417Z,14.50
2023-01-02T08:07:15.364Z,14.50
2023-01-02T08:09:42.290Z,14.60
2023-01-02T08:12:09.211Z,14.70
2023-01-02T08:14:37.290Z,14.70
2023-01-02T08:17:04.376Z,14.80
2023-01-02T08:19:31.705Z,14.90
2023-01-02T08:21:59.141Z,15.00
2023-01-02T08:24:26.146Z,15.00
2023-01-02T08:26:53.345Z,15.10
2023-01-02T08:29:20.738Z,15.20
2023-01-02T08:31:47.595Z,15.20
2023-01-02T08:34:15.223Z,15.30
2023-01-02T08:36:42.613Z,15.30
2023-01-02T08:39:09.731Z,15.40
2023-01-02T08:41:39.810Z,15.40
2023-01-02T08:44:08.201Z,15.40
2023-01-02T08:46:42.291Z,15.40
2023-01-02T08:49:10.190Z,15.50
2023-01-02T08:51:38.675Z,15.50
2023-01-02T08:54:05.847Z,15.70
2023-01-02T08:56:33.412Z,15.60
2023-01-02T08:59:04.186Z,15.60
2023-01-02T09:01:32.775Z,15.70
2023-01-02T09:04:03.698Z,15.70
2023-01-02T09:06:34.679Z,15.80
2023-01-02T09:09:09.245Z,15.90
2023-01-02T09:11:40.129Z,15.90
2023-01-02T09:14:07.126Z,16.00
2023-01-02T09:16:34.298Z,16.00
2023-01-02T09:19:02.486Z,16.00
2023-01-02T09:21:30.006Z,16.00
2023-01-02T09:23:57.675Z,16.00
2023-01-02T09:26:25.463Z,16.00
2023-01-02T09:28:52.851Z,16.00
2023-01-02T09:31:21.028Z,16.00
2023-01-02T09:33:49.017Z,16.00
2023-01-02T09:36:19.120Z,16.00
2023-01-02T09:38:52.646Z,16.20
2023-01-02T09:41:33.756Z,16.10
2023-01-02T09:44:11.393Z,16.10
2023-01-02T09:46:53.905Z,16.10
2023-01-02T09:49:28.064Z,16.20
2023-01-02T09:51:55.783Z,16.10
2023-01-02T09:54:28.305Z,16.10
2023-01-02T09:57:24.546Z,16.10
2023-01-02T10:00:16.685Z,16.10
2023-01-02T10:03:08.561Z,16.00
2023-01-02T10:05:54.102Z,16.00
2023-01-02T10:08:37.877Z,16.00
2023-01-02T10:11:49.627Z,16.10
2023-01-02T10:14:38.748Z,16.20
2023-01-02T10:17:14.233Z,16.30
2023-01-02T10:20:03.720Z,16.40
2023-01-02T10:22:43.188Z,16.60
2023-01-02T10:25:23.661Z,16.60
2023-01-02T10:27:54.657Z,16.70
2023-01-02T10:30:27.093Z,16.80
2023-01-02T10:33:17.921Z,16.80
2023-01-02T10:35:50.822Z,16.90
2023-01-02T10:38:19.728Z,16.80
2023-01-02T10:40:50.067Z,16.90
2023-01-02T10:43:18.230Z,16.90
2023-01-02T10:45:45.399Z,17.00
2023-01-02T10:48:13.643Z,17.00
2023-01-02T10:50:43.176Z,17.00
2023-01-02T10:53:28.466Z,16.90
2023-01-02T10:55:55.447Z,17.00
2023-01-02T10:58:28.247Z,16.90
2023-01-02T11:01:19.117Z,16.90
2023-01-02T11:04:10.130Z,16.90
2023-01-02T11:06:49.987Z,16.60
2023-01-02T11:09:24.391Z,16.90
2023-01-02T11:12:13.268Z,16.80
2023-01-02T11:14:40.598Z,16.80
2023-01-02T11:17:15.440Z,16.80
2023-01-02T11:19:49.027Z,16.70
2023-01-02T11:22:18.813Z,16.60
2023-01-02T11:25:01.318Z,16.60
2023-01-02T11:27:47.827Z,16.50
2023-01-02T11:30:49.007Z,16.40
2023-01-02T11:33:24.957Z,16.20
2023-01-02T11:35:57.720Z,15.90
2023-01-02T11:38:30.734Z,15.50
2023-01-02T11:41:02.839Z,15.30
2023-01-02T11:43:56.086Z,15.30
2023-01-02T11:46:34.970Z,14.70
2023-01-02T11:49:06.817Z,14.50
2023-01-02T11:51:37.373Z,14.30
2023-01-02T11:54:12.875Z,14.20
2023-01-02T11:56:42.990Z,14.10
2023-01-02T11:59:14.618Z,14.10
2023-01-02T12:01:50.504Z,14.00
2023-01-02T12:04:17.789Z,13.90
2023-01-02T12:06:56.682Z,14.20
2023-01-02T12:09:34.756Z,13.90
2023-01-02T12:12:29.055Z,13.90
2023-01-02T12:15:22.059Z,13.90
2023-01-02T12:18:00.365Z,13.80
2023-01-02T12:20:30.361Z,13.90
2023-01-02T12:23:27.601Z,13.90
2023-01-02T12:26:27.778Z,14.00
2023-01-02T12:29:06.801Z,14.10
2023-01-02T12:31:49.440Z,14.30
2023-01-02T12:34:33.432Z,14.30
2023-01-02T12:37:18.998Z,14.30
2023-01-02T12:40:24.566Z,14.50
2023-01-02T12:43:23.739Z,14.50
2023-01-02T12:46:14.925Z,14.50
2023-01-02T12:49:10.144Z,14.40
2023-01-02T12:52:00.691Z,14.30
2023-01-02T12:54:27.605Z,14.30
2023-01-02T12:57:23.930Z,14.20
2023-01-02T13:00:13.693Z,14.20
2023-01-02T13:03:22.620Z,14.20
2023-01-02T13:06:45.357Z,14.20
2023-01-02T13:09:18.377Z,14.20
2023-01-02T13:12:07.853Z,14.20
2023-01-02T13:14:57.938Z,14.20
2023-01-02T13:17:54.277Z,14.30
2023-01-02T13:20:44.783Z,14.30
2023-01-02T13:23:45.676Z,14.30
2023-01-02T13:26:31.718Z,14.30
2023-01-02T13:29:09.760Z,14.30
2023-01-02T13:31:48.107Z,14.20
2023-01-02T13:34:23.297Z,14.20
2023-01-02T13:36:57.536Z,14.20
2023-01-02T13:39:37.329Z,14.30
2023-01-02T13:42:23.735Z,14.30
2023-01-02T13:44:57.954Z,14.30
2023-01-02T13:47:37.568Z,14.30
2023-01-02T13:50:26.476Z,14.30
2023-01-02T13:53:11.523Z,14.30
2023-01-02T13:55:41.711Z,14.30
2023-01-02T13:58:20.566Z,14.30
2023-01-02T14:00:54.926Z,14.40
2023-01-02T14:03:25.522Z,14.30
2023-01-02T14:05:58.963Z,14.20
2023-01-02T14:08:30.552Z,14.20
2023-01-02T14:11:08.092Z,14.10
2023-01-02T14:13:40.732Z,14.10
2023-01-02T14:16:16.723Z,14.10
2023-01-02T14:18:46.752Z,14.00
2023-01-02T14:21:16.647Z,14.00
2023-01-02T14:24:17.176Z,13.90
2023-01-02T14:26:38.243Z,14.00
2023-01-02T14:29:17.311Z,13.90
2023-01-02T14:31:44.512Z,14.00
2023-01-02T14:34:21.247Z,14.00
2023-01-02T14:36:50.718Z,14.00
2023-01-02T14:39:23.363Z,13.90
2023-01-02T14:42:08.930Z,13.90
2023-01-02T14:44:58.452Z,13.90
2023-01-02T14:47:39.986Z,13.80
2023-01-02T14:50:15.951Z,13.80
2023-01-02T14:52:49.429Z,13.80
2023-01-02T14:55:21.380Z,13.70
2023-01-02T14:57:51.393Z,13.70
2023-01-02T15:00:32.241Z,13.70
2023-01-02T15:03:37.882Z,13.70
2023-01-02T15:06:41.658Z,13.60
2023-01-02T15:09:20.760Z,13.60
2023-01-02T15:12:14.287Z,13.50
2023-01-02T15:14:42.534Z,13.40
2023-01-02T15:17:13.900Z,13.40
2023-01-02T15:19:42.667Z,13.40
2023-01-02T15:22:13.033Z,13.40
2023-01-02T15:24:46.507Z,13.50
2023-01-02T15:27:28.294Z,13.40
2023-01-02T15:30:17.963Z,13.30
2023-01-02T15:32:49.430Z,13.30
2023-01-02T15:35:26.144Z,13.30
2023-01-02T15:37:53.306Z,13.30
2023-01-02T15:40:23.424Z,13.30
2023-01-02T15:43:11.578Z,13.30
2023-01-02T15:45:44.433Z,13.20
2023-01-02T15:48:14.360Z,13.20
2023-01-02T15:50:42.289Z,13.10
2023-01-02T15:53:23.539Z,13.10
2023-01-02T15:55:50.896Z,13.00
2023-01-02T15:58:18.020Z,13.00
2023-01-02T16:00:45.900Z,12.90
2023-01-02T16:04:04.053Z,12.90
2023-01-02T16:06:41.408Z,12.80
2023-01-02T16:09:23.195Z,12.80
2023-01-02T16:11:54.540Z,12.80
2023-01-02T16:14:33.104Z,13.00
2023-01-02T16:17:15.903Z,12.80
2023-01-02T16:19:59.034Z,12.70
2023-01-02T16:22:44.486Z,12.70
2023-01-02T16:25:30.105Z,12.70
2023-01-02T16:28:34.196Z,12.70
2023-01-02T16:31:20.451Z,12.70
2023-01-02T16:33:51.699Z,12.70
2023-01-02T16:36:29.444Z,12.70
2023-01-02T16:42:18.461Z,12.60
2023-01-02T16:45:12.068Z,12.60
2023-01-02T16:47:42.427Z,12.50
2023-01-02T16:50:30.673Z,12.50
2023-01-02T16:53:26.087Z,12.50
2023-01-02T16:58:55.304Z,12.60
2023-01-02T17:01:24.046Z,12.60
2023-01-02T17:03:51.153Z,12.60
2023-01-02T17:06:19.117Z,12.60
2023-01-02T17:08:46.051Z,12.60
2023-01-02T17:11:23.796Z,12.70
2023-01-02T17:13:52.087Z,12.60
2023-01-02T17:16:19.484Z,12.60
2023-01-02T17:18:46.590Z,12.40
2023-01-02T17:21:13.682Z,12.30
2023-01-02T17:23:41.257Z,12.20
2023-01-02T17:26:08.710Z,12.10
2023-01-02T17:28:37.683Z,12.10
2023-01-02T17:43:01.563Z,11.60
2023-01-02T17:45:28.685Z,11.80
2023-01-02T17:48:11.457Z,11.50
2023-01-02T17:50:40.173Z,11.50
2023-01-02T17:53:08.125Z,11.40
2023-01-02T17:55:36.361Z,11.40
2023-01-02T17:58:04.216Z,11.40
2023-01-02T18:00:31.631Z,11.30
2023-01-02T18:05:54.327Z,11.30
2023-01-02T18:11:18.725Z,11.10
2023-01-02T18:13:56.474Z,11.10
2023-01-02T18:19:37.663Z,11.10
2023-01-02T18:22:36.583Z,11.10
2023-01-02T18:28:23.108Z,10.70
2023-01-02T18:31:07.590Z,10.90
2023-01-02T18:33:37.586Z,10.80
2023-01-02T18:39:41.303Z,10.80
2023-01-02T18:42:17.065Z,10.80
2023-01-02T18:44:44.744Z,10.80
2023-01-02T18:47:27.532Z,10.80
2023-01-02T18:50:03.060Z,10.80
2023-01-02T18:52:31.957Z,10.70
2023-01-02T18:55:12.441Z,10.50
2023-01-02T18:57:48.291Z,10.80
2023-01-02T19:00:21.623Z,11.00
2023-01-02T19:03:25.959Z,10.70
2023-01-02T19:05:53.968Z,10.80
2023-01-02T19:08:38.033Z,10.90
2023-01-02T19:11:35.886Z,10.80
2023-01-02T19:14:12.509Z,10.80
2023-01-02T19:16:41.151Z,10.80
2023-01-02T19:19:15.952Z,10.80
2023-01-02T19:21:43.188Z,10.80
2023-01-02T19:38:56.802Z,10.70
2023-01-02T19:54:20.714Z,10.50
2023-01-02T19:56:48.084Z,10.40
2023-01-02T19:59:25.872Z,10.40
2023-01-02T20:01:53.170Z,10.40
2023-01-02T20:04:21.096Z,10.20
2023-01-02T20:06:50.919Z,10.40
2023-01-02T20:09:20.119Z,10.40
2023-01-02T20:12:11.742Z,10.30
2023-01-02T20:14:39.895Z,10.40
2023-01-02T20:17:08.254Z,10.30
2023-01-02T20:19:35.649Z,10.30
2023-01-02T20:22:03.160Z,10.50
2023-01-02T20:24:30.435Z,10.40
2023-01-02T20:27:00.136Z,10.30
2023-01-02T20:29:27.917Z,10.20
2023-01-02T20:37:40.574Z,10.30
2023-01-02T20:43:08.347Z,10.40
2023-01-02T20:48:29.801Z,10.30
2023-01-02T20:51:15.587Z,10.20
2023-01-02T20:56:54.816Z,10.20
2023-01-02T21:02:10.716Z,10.20
2023-01-02T21:16:50.210Z,10.00
2023-01-02T21:38:09.768Z,9.90
2023-01-02T21:40:37.591Z,9.90
2023-01-02T21:43:18.813Z,9.70
2023-01-02T21:45:46.062Z,9.70
2023-01-02T21:48:21.035Z,9.70
2023-01-02T21:50:51.958Z,9.70
2023-01-02T21:53:19.527Z,9.70
2023-01-02T21:55:46.663Z,9.80
2023-01-02T21:58:16.234Z,9.60
2023-01-02T22:00:46.517Z,9.60
2023-01-02T22:03:14.283Z,9.70
2023-01-02T22:05:47.074Z,9.70
2023-01-02T22:11:47.107Z,9.70
2023-01-02T22:14:15.998Z,9.70
2023-01-02T22:16:45.656Z,9.60
2023-01-02T22:19:13.173Z,9.60
2023-01-02T22:21:40.740Z,9.60
2023-01-02T22:24:09.245Z,9.60
2023-01-02T22:26:41.926Z,9.60
2023-01-02T22:29:10.317Z,9.50
2023-01-02T22:31:37.816Z,9.40
2023-01-02T22:34:05.454Z,9.70
2023-01-02T22:36:33.933Z,9.70
2023-01-02T22:39:27.659Z,9.70
2023-01-02T22:44:55.279Z,9.70
2023-01-02T22:47:28.860Z,9.70
2023-01-02T22:49:57.668Z,9.80
2023-01-02T22:52:26.402Z,9.80
2023-01-02T22:54:53.712Z,9.90
2023-01-02T22:57:20.821Z,9.80
2023-01-02T22:59:48.003Z,9.80
2023-01-02T23:02:18.717Z,9.80
2023-01-02T23:04:46.134Z,9.60
2023-01-02T23:07:24.108Z,9.90
2023-01-02T23:09:51.653Z,10.00
2023-01-02T23:12:18.694Z,10.00
2023-01-02T23:14:46.050Z,10.00
2023-01-02T23:17:33.885Z,10.00
2023-01-02T23:20:01.239Z,10.00
2023-01-02T23:22:28.294Z,9.80
2023-01-02T23:24:55.821Z,9.80
2023-01-02T23:27:23.311Z,9.80
2023-01-02T23:29:50.394Z,9.80
2023-01-02T23:32:17.659Z,9.80
2023-01-02T23:34:44.797Z,9.80
2023-01-02T23:37:11.970Z,9.90
2023-01-02T23:39:39.200Z,10.00
2023-01-02T23:42:06.515Z,9.90
2023-01-02T23:44:33.735Z,10.00
2023-01-02T23:47:05.468Z,10.00
2023-01-02T23:49:36.052Z,10.00
2023-01-02T23:52:07.098Z,10.00
2023-01-02T23:54:34.280Z,10.00
2023-01-02T23:57:01.469Z,10.20
2023-01-02T23:59:28.641Z,10.10
